Impacts METAR Board
IDs:

KEWR - Newark Intl, NJ, US

Updated at: 0800 UTC 24 Sep 2018
Potential Impact None Slight Moderate High
Time 23/20Z 23/21Z 23/22Z 23/23Z 24/00Z 24/01Z 24/02Z 24/03Z 24/04Z 24/05Z 24/06Z 24/07Z 24/08Z
Temp65 65 65 64 64 64 64 64 63 62 62 60 59
Dewpt56 57 57 56 56 55 56 56 56 56 57 57 56
Altim30.22 30.23 30.23 30.23 30.25 30.27 30.28 30.29 30.30 30.30 30.31 30.31 30.31
VIS10 10 10 10 10 10 10 10 10 10 10 10 10
CIG28 26 22 24 23 21 20 25 28 45 36 40 250
CoverBKNOVCOVCOVCOVCOVCOVCOVCOVCBKNBKNBKNBKN
FltCatMVFRMVFRMVFRMVFRMVFRMVFRMVFRMVFRMVFRVFRVFRVFRVFR
WX--------------------------
WDir006040303020202020202020
WSpd3 0 8 7 7 8 7 7 8 6 8 8 8
WGst-- -- -- -- -- -- -- -- -- -- -- -- --
Raw hourly METARs
KEWR 231951Z VRB03KT 10SM BKN028 BKN043 BKN150 BKN200 18/13 A3022 RMK AO2 RAB1859E13 SLP233 P0000 T01830133
KEWR 232051Z 00000KT 10SM BKN026 BKN045 OVC150 18/14 A3023 RMK AO2 SLP235 60000 T01830139 55002
KEWR 232151Z 06008KT 10SM BKN022 BKN045 OVC150 18/14 A3023 RMK AO2 SLP237 T01830139
KEWR 232251Z 04007KT 10SM BKN024 BKN045 OVC150 18/13 A3023 RMK AO2 SLP237 T01780133
KEWR 232351Z 03007KT 10SM BKN023 OVC050 18/13 A3025 RMK AO2 SLP244 60000 T01780133 10189 20178 53009
KEWR 240051Z 03008KT 10SM OVC021 18/13 A3027 RMK AO2 SLP250 T01780128
KEWR 240151Z 02007KT 10SM OVC020 18/13 A3028 RMK AO2 SLP253 T01780133
KEWR 240251Z 02007KT 10SM OVC025 18/13 A3029 RMK AO2 SLP258 T01780133 51014
KEWR 240351Z 02008KT 10SM OVC028 17/13 A3030 RMK SLP260 T01720133
KEWR 240451Z 02006KT 10SM SCT028 BKN045 BKN240 17/13 A3030 RMK AO2 SLP258 T01670133 401890144
KEWR 240551Z 02008KT 10SM FEW022 BKN036 BKN240 17/14 A3031 RMK AO2 SLP262 T01670139 10178 20167 53004
KEWR 240651Z 02008KT 10SM SCT022 BKN040 BKN250 16/14 A3031 RMK AO2 SLP263 T01560139
KEWR 240751Z 02008KT 10SM FEW022 SCT045 BKN250 15/13 A3031 RMK AO2 SLP264 T01500133



Page loaded:  08:23 UTC  |   01:23 AM Pacific  |   02:23 AM Mountain  |   03:23 AM Central  |   04:23 AM Eastern

 

ADVISORIES

FORECASTS

FORECASTS

OBSERVATIONS

USER TOOLS

ABOUT US